»·PEaware :: N55NT KSNA-KPHX

N55NT :: KSNA-KPHX

FLIGHT INFORMATION

Flight Status: Arrived
Operator: Privately registered:
United States
More flights under this callsign
Pilot: Craig H. (6968)
Aircraft: BEECH AIRCRAFT PREMIER
(PRM1)
More flights by this aircraft type
Origin: KSNA John Wayne-Orange Co
United States
Destination: KPHX Phoenix Sky Harbor Intl
United States
More flights between these airports :: More routes between these airports
Route: MUSEL8 TRM J169 BLH HYDDR1
File this flight plan on PilotEdge
Remarks:
Altitude:
(Current/Filed)
31,000ft
Speed:
(Current/Filed)
400kts
Departed: 25-Nov-19 05:36 PM
Arrived: 25-Nov-19 06:37 PM
Distance/Time
Traveled:
293nm/1:01
Distance/Time
To Go:
Arrived

Flight Plot

Page will automatically refresh every two minutes.

Flight plan parsing failed; only flown route is shown


Map Options




Map Legend


Flown Route
Filed Route
Departure Airport
Arrival Airport
Navaid (VOR, NDB)
Fix

Horizontal Profiles

Position Reports

Time Latitude Longitude Heading Altitude Ground
Speed
25-Nov-19 17:10 33.665927 -117.872907 41 63ft 0kts
25-Nov-19 17:11 33.665927 -117.872907 41 63ft 0kts
25-Nov-19 17:12 33.665927 -117.872907 41 63ft 0kts
25-Nov-19 17:13 33.665927 -117.872907 41 63ft 0kts
25-Nov-19 17:14 33.665927 -117.872907 41 63ft 0kts
25-Nov-19 17:15 33.665927 -117.872907 41 63ft 0kts
25-Nov-19 17:16 33.665927 -117.872907 41 63ft 0kts
25-Nov-19 17:17 33.665927 -117.872907 41 63ft 0kts
25-Nov-19 17:18 33.665927 -117.872907 41 63ft 0kts
25-Nov-19 17:19 33.665927 -117.872907 41 63ft 0kts
25-Nov-19 17:20 33.665927 -117.872907 41 63ft 0kts
25-Nov-19 17:21 33.665927 -117.872907 41 63ft 0kts
25-Nov-19 17:22 33.665927 -117.872907 41 63ft 0kts
25-Nov-19 17:23 33.665927 -117.872907 41 63ft 0kts
25-Nov-19 17:24 33.665927 -117.872907 41 63ft 0kts
25-Nov-19 17:25 33.665927 -117.872907 41 63ft 0kts
25-Nov-19 17:26 33.665927 -117.872907 41 63ft 0kts
25-Nov-19 17:27 33.666224 -117.873120 306 63ft 8kts
25-Nov-19 17:28 33.669612 -117.870433 40 63ft 17kts
25-Nov-19 17:29 33.673134 -117.867208 47 63ft 16kts
25-Nov-19 17:30 33.676833 -117.864753 30 63ft 13kts
25-Nov-19 17:31 33.679885 -117.863446 294 63ft 5kts
25-Nov-19 17:32 33.679911 -117.863512 296 63ft 1kts
25-Nov-19 17:33 33.679940 -117.863582 296 63ft 0kts
25-Nov-19 17:34 33.679988 -117.863698 296 63ft 8kts
25-Nov-19 17:35 33.675340 -117.869049 208 63ft 113kts
25-Nov-19 17:36 33.632439 -117.888417 189 2641ft 192kts
25-Nov-19 17:37 33.573310 -117.898864 191 5506ft 242kts
25-Nov-19 17:38 33.521756 -117.845852 121 8373ft 278kts
25-Nov-19 17:39 33.503505 -117.758505 65 10925ft 286kts
25-Nov-19 17:40 33.523944 -117.663038 64 13464ft 305kts
25-Nov-19 17:41 33.544828 -117.562216 65 15850ft 319kts
25-Nov-19 17:42 33.566508 -117.456858 65 18041ft 330kts
25-Nov-19 17:43 33.588266 -117.350703 65 20212ft 335kts
25-Nov-19 17:44 33.610283 -117.242557 66 22250ft 335kts
25-Nov-19 17:45 33.632323 -117.133791 66 24231ft 332kts
25-Nov-19 17:46 33.654444 -117.024951 66 25749ft 341kts
25-Nov-19 17:48 33.677041 -116.912388 68 27153ft 350kts
25-Nov-19 17:49 33.683763 -116.797339 92 28704ft 358kts
25-Nov-19 17:50 33.673435 -116.676905 93 29832ft 366kts
25-Nov-19 17:51 33.662886 -116.553822 95 30731ft 379kts
25-Nov-19 17:52 33.651330 -116.421578 95 30740ft 419kts
25-Nov-19 17:53 33.638471 -116.276364 96 30722ft 452kts
25-Nov-19 17:54 33.627504 -116.122114 91 30699ft 476kts
25-Nov-19 17:55 33.624550 -115.960035 90 30716ft 494kts
25-Nov-19 17:56 33.621282 -115.793274 90 30726ft 506kts
25-Nov-19 17:57 33.617729 -115.623107 91 30729ft 514kts
25-Nov-19 17:58 33.613861 -115.450305 91 30733ft 520kts
25-Nov-19 17:59 33.609765 -115.276458 92 30715ft 523kts
25-Nov-19 18:00 33.605359 -115.101935 93 30729ft 523kts
25-Nov-19 18:01 33.600722 -114.926775 94 30734ft 525kts
25-Nov-19 18:02 33.592856 -114.752031 102 30749ft 523kts
25-Nov-19 18:03 33.561298 -114.582032 107 30743ft 522kts
25-Nov-19 18:04 33.528120 -114.412333 108 30381ft 525kts
25-Nov-19 18:05 33.495353 -114.246469 107 27944ft 499kts
25-Nov-19 18:06 33.465239 -114.095090 105 24833ft 446kts
25-Nov-19 18:07 33.435159 -113.944071 106 24756ft 485kts
25-Nov-19 18:08 33.402879 -113.783969 106 24758ft 497kts
25-Nov-19 18:08 33.376051 -113.651340 106 24759ft 488kts
25-Nov-19 18:10 33.338955 -113.469078 105 24769ft 479kts
25-Nov-19 18:11 33.311731 -113.313229 103 23902ft 485kts
25-Nov-19 18:11 33.290177 -113.180757 100 21400ft 488kts
25-Nov-19 18:13 33.275926 -113.006703 87 17583ft 395kts
25-Nov-19 18:13 33.278622 -112.901172 87 15932ft 384kts
25-Nov-19 18:14 33.284933 -112.775156 83 13938ft 371kts
25-Nov-19 18:15 33.296089 -112.656760 83 12754ft 353kts
25-Nov-19 18:16 33.306883 -112.540436 84 11817ft 345kts
25-Nov-19 18:17 33.317256 -112.427556 84 11747ft 343kts
25-Nov-19 18:18 33.327378 -112.317326 86 10633ft 313kts
25-Nov-19 18:19 33.336542 -112.216168 87 9117ft 299kts
25-Nov-19 18:20 33.344717 -112.125275 88 8726ft 267kts
25-Nov-19 18:21 33.346904 -112.035391 95 7425ft 276kts
25-Nov-19 18:22 33.345882 -111.951284 96 6609ft 244kts
25-Nov-19 18:23 33.344358 -111.869334 96 4590ft 236kts
25-Nov-19 18:24 33.342466 -111.794232 96 3741ft 214kts
25-Nov-19 18:25 33.340373 -111.718999 96 3745ft 230kts
25-Nov-19 18:26 33.338170 -111.642329 96 3753ft 230kts
25-Nov-19 18:27 33.352687 -111.572770 16 3766ft 238kts
25-Nov-19 18:28 33.398754 -111.614250 300 3745ft 217kts
25-Nov-19 18:29 33.432420 -111.671156 293 3741ft 200kts
25-Nov-19 18:30 33.435354 -111.734183 257 3448ft 188kts
25-Nov-19 18:31 33.430943 -111.799673 262 2987ft 206kts
25-Nov-19 18:32 33.428971 -111.866855 265 2503ft 180kts
25-Nov-19 18:33 33.429050 -111.916208 265 2303ft 128kts
25-Nov-19 18:34 33.428753 -111.958578 268 1824ft 127kts
25-Nov-19 18:35 33.428835 -111.999540 270 1183ft 117kts
25-Nov-19 18:36 33.428408 -112.021835 185 1116ft 17kts
25-Nov-19 18:37 33.426998 -112.021133 183 1116ft 12kts

Navigation Log

Ident Type
Flight plan parsing failed, navigation log unavailable